createdAt,value
2019-03-22T00:00:28.958Z,10.10
2019-03-22T00:03:00.217Z,9.07
2019-03-22T00:05:28.722Z,9.70
2019-03-22T00:07:57.617Z,9.77
2019-03-22T00:10:26.107Z,8.30
2019-03-22T00:12:54.531Z,7.30
2019-03-22T00:15:23.211Z,8.10
2019-03-22T00:17:51.677Z,7.23
2019-03-22T00:20:20.354Z,6.80
2019-03-22T00:22:48.778Z,7.17
2019-03-22T00:25:17.824Z,5.60
2019-03-22T00:27:46.225Z,6.07
2019-03-22T00:30:15.025Z,6.20
2019-03-22T00:32:43.591Z,7.40
2019-03-22T00:35:11.985Z,6.20
2019-03-22T00:37:40.408Z,6.63
2019-03-22T00:40:10.306Z,6.10
2019-03-22T00:42:38.779Z,5.77
2019-03-22T00:45:09.128Z,6.70
2019-03-22T00:47:37.934Z,7.23
2019-03-22T00:50:07.398Z,6.20
2019-03-22T00:52:36.050Z,5.93
2019-03-22T00:55:05.207Z,6.10
2019-03-22T00:57:33.904Z,6.40
2019-03-22T01:00:02.642Z,6.30
2019-03-22T01:02:31.138Z,5.80
2019-03-22T01:05:00.022Z,7.30
2019-03-22T01:07:28.462Z,7.20
2019-03-22T01:09:57.302Z,7.17
2019-03-22T01:12:25.957Z,7.30
2019-03-22T01:14:54.386Z,7.53
2019-03-22T01:17:23.098Z,7.70
2019-03-22T01:19:51.773Z,7.40
2019-03-22T01:22:20.453Z,6.77
2019-03-22T01:24:49.239Z,7.20
2019-03-22T01:27:17.650Z,7.33
2019-03-22T01:29:46.070Z,7.27
2019-03-22T01:32:14.794Z,6.23
2019-03-22T01:34:43.451Z,7.50
2019-03-22T01:37:12.116Z,7.40
2019-03-22T01:39:40.591Z,8.27
2019-03-22T01:42:09.063Z,8.10
2019-03-22T01:44:37.498Z,8.17
2019-03-22T01:47:06.473Z,6.40
2019-03-22T01:49:34.888Z,7.40
2019-03-22T01:52:03.304Z,6.80
2019-03-22T01:54:31.977Z,7.30
2019-03-22T01:57:00.632Z,7.03
2019-03-22T01:59:29.365Z,7.20
2019-03-22T02:01:57.838Z,8.50
2019-03-22T02:04:26.540Z,6.77
2019-03-22T02:06:55.223Z,7.10
2019-03-22T02:09:23.713Z,6.73
2019-03-22T02:11:52.190Z,7.57
2019-03-22T02:14:20.701Z,7.73
2019-03-22T02:16:49.367Z,7.50
2019-03-22T02:19:18.291Z,10.00
2019-03-22T02:21:46.735Z,15.10
2019-03-22T02:24:15.462Z,14.70
2019-03-22T02:26:43.854Z,14.43
2019-03-22T02:29:12.335Z,11.20
2019-03-22T02:31:40.780Z,10.67
2019-03-22T02:34:09.203Z,9.63
2019-03-22T02:36:37.872Z,8.43
2019-03-22T02:39:07.095Z,7.53
2019-03-22T02:41:35.595Z,7.70
2019-03-22T02:44:04.369Z,7.40
2019-03-22T02:46:33.129Z,8.50
2019-03-22T02:49:01.557Z,7.57
2019-03-22T02:51:30.196Z,7.60
2019-03-22T02:53:58.658Z,7.07
2019-03-22T02:56:27.332Z,7.10
2019-03-22T02:58:59.166Z,6.97
2019-03-22T03:01:26.152Z,8.67
2019-03-22T03:03:54.798Z,6.73
2019-03-22T03:06:23.207Z,6.90
2019-03-22T03:08:51.671Z,7.50
2019-03-22T03:11:20.280Z,7.90
2019-03-22T03:13:48.971Z,6.93
2019-03-22T03:16:17.512Z,8.70
2019-03-22T03:18:46.205Z,7.43
2019-03-22T03:21:14.861Z,7.13
2019-03-22T03:23:44.560Z,7.80
2019-03-22T03:26:12.970Z,7.07
2019-03-22T03:28:41.378Z,7.43
2019-03-22T03:31:09.845Z,7.67
2019-03-22T03:33:38.263Z,7.33
2019-03-22T03:36:06.921Z,8.30
2019-03-22T03:38:35.403Z,7.20
2019-03-22T03:41:04.204Z,6.43
2019-03-22T03:43:32.680Z,6.80
2019-03-22T03:46:01.287Z,6.53
2019-03-22T03:48:29.720Z,7.40
2019-03-22T03:50:58.137Z,6.90
2019-03-22T03:53:26.866Z,7.03
2019-03-22T03:55:55.351Z,7.70
2019-03-22T03:58:23.999Z,7.20
2019-03-22T04:00:52.434Z,7.10
2019-03-22T04:03:20.867Z,7.07
2019-03-22T04:05:49.286Z,7.77
2019-03-22T04:08:17.927Z,6.73
2019-03-22T04:10:47.010Z,7.00
2019-03-22T04:13:15.706Z,7.70
2019-03-22T04:15:44.217Z,7.00
2019-03-22T04:18:12.646Z,6.90
2019-03-22T04:20:41.126Z,7.17
2019-03-22T04:23:09.609Z,8.50
2019-03-22T04:25:38.045Z,8.80
2019-03-22T04:28:06.469Z,8.00
2019-03-22T04:30:35.169Z,7.20
2019-03-22T04:33:06.413Z,7.20
2019-03-22T04:35:33.830Z,7.20
2019-03-22T04:38:02.366Z,6.97
2019-03-22T04:40:31.116Z,7.80
2019-03-22T04:42:59.575Z,7.20
2019-03-22T04:45:31.767Z,7.90
2019-03-22T04:48:03.500Z,8.70
2019-03-22T04:50:34.862Z,7.17
2019-03-22T04:53:04.420Z,8.10
2019-03-22T04:55:34.942Z,8.40
2019-03-22T04:58:04.196Z,9.20
2019-03-22T05:00:33.278Z,7.10
2019-03-22T05:03:03.245Z,7.83
2019-03-22T05:05:33.119Z,7.70
2019-03-22T05:08:01.806Z,7.63
2019-03-22T05:10:30.630Z,6.63
2019-03-22T05:13:01.831Z,7.60
2019-03-22T05:15:33.555Z,7.97
2019-03-22T05:18:03.237Z,7.77
2019-03-22T05:20:34.182Z,7.63
2019-03-22T05:23:03.767Z,8.60
2019-03-22T05:25:34.151Z,7.87
2019-03-22T05:28:03.770Z,7.70
2019-03-22T05:30:55.972Z,7.97
2019-03-22T05:33:24.367Z,7.87
2019-03-22T05:35:54.017Z,8.53
2019-03-22T05:38:22.429Z,8.07
2019-03-22T05:40:50.830Z,7.23
2019-03-22T05:43:19.226Z,8.80
2019-03-22T05:45:47.668Z,9.10
2019-03-22T05:48:16.042Z,8.37
2019-03-22T05:50:44.437Z,8.50
2019-03-22T05:53:12.904Z,8.57
2019-03-22T05:55:41.302Z,9.00
2019-03-22T05:58:09.765Z,9.53
2019-03-22T06:00:38.181Z,9.70
2019-03-22T06:03:06.847Z,8.70
2019-03-22T06:05:35.236Z,9.37
2019-03-22T06:08:03.715Z,9.67
2019-03-22T06:10:32.122Z,8.50
2019-03-22T06:13:00.539Z,9.57
2019-03-22T06:15:29.236Z,8.13
2019-03-22T06:17:57.863Z,8.10
2019-03-22T06:20:26.271Z,8.17
2019-03-22T06:22:54.727Z,8.57
2019-03-22T06:25:23.122Z,8.97
2019-03-22T06:27:51.518Z,9.47
2019-03-22T06:30:20.202Z,8.77
2019-03-22T06:32:48.851Z,10.53
2019-03-22T06:35:17.265Z,14.57
2019-03-22T06:37:45.745Z,18.20
2019-03-22T06:40:14.156Z,15.30
2019-03-22T06:42:42.783Z,15.60
2019-03-22T06:45:11.273Z,10.30
2019-03-22T06:47:39.673Z,8.83
2019-03-22T06:50:08.140Z,9.00
2019-03-22T06:52:36.589Z,9.40
2019-03-22T06:55:06.834Z,8.67
2019-03-22T06:57:35.287Z,11.40
2019-03-22T07:00:10.879Z,10.00
2019-03-22T07:02:39.615Z,9.20
2019-03-22T07:05:08.246Z,9.70
2019-03-22T07:07:36.921Z,9.10
2019-03-22T07:10:07.308Z,9.43
2019-03-22T07:12:35.941Z,9.50
2019-03-22T07:15:06.543Z,10.33
2019-03-22T07:17:35.184Z,9.40
2019-03-22T07:20:05.288Z,10.60
2019-03-22T07:22:33.988Z,9.60
2019-03-22T07:25:02.633Z,10.60
2019-03-22T07:27:31.283Z,10.70
2019-03-22T07:29:59.729Z,10.40
2019-03-22T07:32:28.383Z,10.93
2019-03-22T07:34:56.814Z,10.50
2019-03-22T07:37:25.425Z,11.00
2019-03-22T07:39:54.061Z,11.70
2019-03-22T07:42:22.465Z,11.07
2019-03-22T07:44:51.175Z,12.50
2019-03-22T07:47:19.817Z,12.47
2019-03-22T07:49:48.226Z,13.57
2019-03-22T07:52:16.645Z,13.30
2019-03-22T07:54:45.299Z,12.87
2019-03-22T07:57:13.935Z,13.43
2019-03-22T07:59:42.815Z,13.63
2019-03-22T08:02:11.311Z,13.27
2019-03-22T08:04:39.757Z,13.00
2019-03-22T08:07:08.475Z,13.43
2019-03-22T08:09:37.248Z,13.90
2019-03-22T08:12:05.767Z,11.97
2019-03-22T08:14:34.261Z,11.70
2019-03-22T08:17:02.749Z,14.00
2019-03-22T08:19:31.682Z,12.90
2019-03-22T08:22:00.231Z,12.83
2019-03-22T08:24:28.712Z,10.40
2019-03-22T08:26:57.161Z,12.90
2019-03-22T08:29:25.871Z,11.27
2019-03-22T08:31:54.273Z,10.93
2019-03-22T08:34:23.486Z,11.73
2019-03-22T08:36:51.968Z,10.70
2019-03-22T08:39:20.361Z,10.97
2019-03-22T08:41:48.784Z,10.53
2019-03-22T08:44:17.219Z,10.73
2019-03-22T08:46:45.651Z,11.00
2019-03-22T08:49:14.112Z,10.23
2019-03-22T08:51:42.618Z,10.13
2019-03-22T08:54:11.236Z,10.77
2019-03-22T08:56:42.036Z,10.93
2019-03-22T08:59:13.357Z,12.70
2019-03-22T09:01:40.905Z,10.60
2019-03-22T09:04:09.555Z,10.30
2019-03-22T09:06:38.005Z,10.30
2019-03-22T09:09:09.815Z,10.23
2019-03-22T09:11:38.492Z,11.00
2019-03-22T09:14:07.188Z,13.03
2019-03-22T09:16:35.583Z,11.27
2019-03-22T09:19:04.253Z,12.93
2019-03-22T09:21:32.821Z,10.63
2019-03-22T09:24:01.266Z,10.03
2019-03-22T09:26:29.666Z,11.60
2019-03-22T09:28:58.383Z,10.17
2019-03-22T09:31:26.800Z,12.00
2019-03-22T09:33:55.209Z,10.40
2019-03-22T09:36:23.670Z,10.50
2019-03-22T09:38:52.085Z,9.77
2019-03-22T09:41:20.516Z,10.73
2019-03-22T09:43:48.998Z,9.53
2019-03-22T09:46:17.708Z,9.77
2019-03-22T09:48:46.189Z,9.40
2019-03-22T09:51:14.787Z,9.30
2019-03-22T09:53:43.443Z,11.40
2019-03-22T09:56:11.845Z,10.10
2019-03-22T09:58:40.337Z,9.30
2019-03-22T10:01:08.853Z,9.70
2019-03-22T10:03:37.689Z,8.87
2019-03-22T10:06:06.332Z,8.47
2019-03-22T10:08:34.826Z,8.37
2019-03-22T10:11:03.275Z,9.27
2019-03-22T10:13:32.591Z,8.70
2019-03-22T10:16:01.263Z,9.03
2019-03-22T10:18:31.355Z,7.40
2019-03-22T10:20:59.839Z,8.83
2019-03-22T10:23:29.383Z,8.97
2019-03-22T10:25:58.045Z,7.40
2019-03-22T10:28:26.489Z,8.00
2019-03-22T10:30:54.918Z,8.10
2019-03-22T10:33:23.441Z,8.03
2019-03-22T10:35:52.225Z,8.50
2019-03-22T10:38:31.036Z,9.27
2019-03-22T10:40:51.350Z,8.17
2019-03-22T10:43:19.814Z,8.90
2019-03-22T10:45:48.694Z,8.40
2019-03-22T10:48:17.588Z,9.20
2019-03-22T10:50:46.607Z,9.67
2019-03-22T10:53:15.044Z,8.47
2019-03-22T10:55:43.799Z,9.80
2019-03-22T10:58:20.963Z,8.47
2019-03-22T11:00:42.425Z,8.00
2019-03-22T11:03:10.873Z,9.50
2019-03-22T11:05:39.335Z,8.80
2019-03-22T11:08:07.992Z,8.47
2019-03-22T11:10:36.434Z,9.80
2019-03-22T11:13:05.195Z,10.87
2019-03-22T11:15:33.899Z,11.40
2019-03-22T11:18:02.361Z,8.90
2019-03-22T11:20:31.569Z,9.27
2019-03-22T11:23:00.221Z,10.03
2019-03-22T11:25:28.628Z,9.27
2019-03-22T11:27:57.327Z,10.27
2019-03-22T11:30:26.031Z,9.97
2019-03-22T11:32:54.445Z,10.10
2019-03-22T11:35:22.876Z,10.00
2019-03-22T11:37:51.429Z,9.53
2019-03-22T11:40:19.996Z,10.80
2019-03-22T11:42:48.741Z,9.80
2019-03-22T11:45:19.862Z,8.73
2019-03-22T11:47:48.626Z,9.17
2019-03-22T11:50:17.371Z,9.10
2019-03-22T11:52:45.780Z,9.63
2019-03-22T11:55:14.861Z,9.20
2019-03-22T11:57:43.285Z,9.27
2019-03-22T12:00:25.098Z,9.07
2019-03-22T12:02:54.806Z,8.90
2019-03-22T12:05:23.453Z,8.87
2019-03-22T12:07:51.966Z,10.10
2019-03-22T12:10:21.069Z,9.73
2019-03-22T12:12:49.557Z,9.70
2019-03-22T12:15:20.511Z,11.37
2019-03-22T12:17:49.037Z,9.20
2019-03-22T12:20:19.214Z,9.67
2019-03-22T12:22:47.848Z,10.33
2019-03-22T12:25:18.138Z,10.13
2019-03-22T12:27:48.396Z,11.10
2019-03-22T12:30:18.127Z,9.67
2019-03-22T12:32:46.960Z,11.33
2019-03-22T12:35:16.417Z,11.07
2019-03-22T12:37:45.943Z,9.90
2019-03-22T12:40:24.602Z,8.87
2019-03-22T12:42:53.376Z,9.93
2019-03-22T12:45:30.483Z,10.20
2019-03-22T12:47:59.329Z,9.70
2019-03-22T12:50:28.147Z,10.90
2019-03-22T12:52:56.675Z,9.50
2019-03-22T12:55:25.147Z,9.47
2019-03-22T12:57:53.642Z,9.20
2019-03-22T13:00:24.532Z,10.67
2019-03-22T13:02:54.373Z,10.60
2019-03-22T13:05:23.264Z,9.60
2019-03-22T13:07:52.136Z,9.53
2019-03-22T13:10:27.496Z,9.93
2019-03-22T13:12:56.913Z,10.47
2019-03-22T13:15:25.399Z,9.63
2019-03-22T13:17:53.810Z,10.73
2019-03-22T13:20:23.049Z,10.73
2019-03-22T13:22:51.669Z,10.67
2019-03-22T13:25:21.236Z,10.47
2019-03-22T13:27:49.815Z,9.90
2019-03-22T13:30:30.498Z,11.63
2019-03-22T13:32:59.311Z,11.17
2019-03-22T13:35:27.801Z,10.40
2019-03-22T13:37:56.291Z,10.27
2019-03-22T13:40:24.803Z,10.07
2019-03-22T13:42:53.275Z,10.00
2019-03-22T13:45:21.943Z,10.33
2019-03-22T13:47:50.364Z,10.23
2019-03-22T13:50:18.848Z,9.30
2019-03-22T13:52:47.691Z,9.53
2019-03-22T13:55:16.224Z,11.63
2019-03-22T13:57:44.647Z,9.40
2019-03-22T14:00:15.169Z,10.17
2019-03-22T14:02:43.935Z,10.37
2019-03-22T14:05:12.406Z,9.53
2019-03-22T14:07:41.050Z,9.67
2019-03-22T14:10:17.854Z,8.37
2019-03-22T14:12:46.273Z,9.53
2019-03-22T14:15:14.933Z,9.83
2019-03-22T14:17:43.614Z,8.70
2019-03-22T14:20:12.865Z,11.07
2019-03-22T14:22:41.499Z,8.93
2019-03-22T14:25:10.187Z,9.97
2019-03-22T14:27:39.094Z,9.90
2019-03-22T14:30:08.528Z,9.97
2019-03-22T14:32:37.618Z,9.10
2019-03-22T14:35:07.107Z,9.53
2019-03-22T14:37:35.522Z,10.33
2019-03-22T14:40:06.017Z,10.60
2019-03-22T14:42:34.424Z,9.23
2019-03-22T14:45:04.872Z,9.10
2019-03-22T14:47:33.585Z,8.00
2019-03-22T14:50:02.302Z,8.27
2019-03-22T14:52:30.761Z,7.60
2019-03-22T14:54:59.241Z,7.77
2019-03-22T14:57:27.888Z,9.10
2019-03-22T14:59:59.244Z,6.80
2019-03-22T15:02:26.910Z,8.17
2019-03-22T15:04:55.494Z,6.50
2019-03-22T15:07:24.133Z,7.43
2019-03-22T15:09:52.846Z,6.63
2019-03-22T15:12:21.617Z,7.40
2019-03-22T15:15:03.838Z,6.30
2019-03-22T15:17:36.828Z,8.47
2019-03-22T15:20:16.981Z,7.70
2019-03-22T15:22:49.788Z,6.87
2019-03-22T15:25:36.560Z,5.40
2019-03-22T15:28:15.411Z,5.83
2019-03-22T15:30:48.344Z,5.53
2019-03-22T15:33:34.643Z,6.80
2019-03-22T15:36:21.173Z,5.30
2019-03-22T15:38:57.047Z,4.83
2019-03-22T15:41:25.455Z,4.50
2019-03-22T15:43:53.907Z,5.80
2019-03-22T15:46:22.746Z,4.73
2019-03-22T15:48:52.280Z,5.10
2019-03-22T15:51:20.744Z,5.40
2019-03-22T15:53:49.150Z,5.80
2019-03-22T15:56:17.785Z,5.23
2019-03-22T15:58:46.213Z,5.47
2019-03-22T16:01:14.613Z,4.90
2019-03-22T16:03:44.460Z,4.60
2019-03-22T16:06:13.159Z,4.87
2019-03-22T16:08:41.781Z,4.50
2019-03-22T16:11:10.167Z,4.70
2019-03-22T16:13:38.601Z,4.30
2019-03-22T16:16:06.994Z,4.60
2019-03-22T16:18:35.640Z,5.60
2019-03-22T16:21:04.150Z,4.03
2019-03-22T16:23:32.545Z,4.87
2019-03-22T16:26:00.941Z,5.73
2019-03-22T16:28:29.352Z,4.50
2019-03-22T16:30:57.741Z,3.70
2019-03-22T16:33:26.134Z,5.10
2019-03-22T16:35:54.642Z,4.83
2019-03-22T16:38:23.607Z,4.73
2019-03-22T16:40:51.998Z,4.80
2019-03-22T16:43:20.421Z,4.70
2019-03-22T16:45:49.040Z,4.70
2019-03-22T16:48:17.447Z,4.70
2019-03-22T16:50:45.863Z,4.00
2019-03-22T16:53:14.259Z,4.60
2019-03-22T16:55:42.652Z,4.43
2019-03-22T16:58:11.098Z,3.77
2019-03-22T17:00:39.632Z,4.43
2019-03-22T17:03:08.021Z,4.50
2019-03-22T17:05:36.524Z,4.17
2019-03-22T17:08:05.322Z,4.80
2019-03-22T17:10:34.008Z,4.90
2019-03-22T17:13:02.416Z,4.00
2019-03-22T17:15:31.079Z,4.47
2019-03-22T17:17:59.494Z,5.03
2019-03-22T17:20:28.101Z,4.00
2019-03-22T17:22:56.513Z,4.50
2019-03-22T17:25:24.946Z,5.10
2019-03-22T17:27:53.394Z,6.30
2019-03-22T17:30:22.035Z,5.97
2019-03-22T17:32:50.663Z,6.10
2019-03-22T17:35:19.166Z,6.90
2019-03-22T17:37:49.317Z,5.53
2019-03-22T17:40:18.305Z,6.60
2019-03-22T17:42:47.031Z,6.67
2019-03-22T17:45:17.388Z,6.63
2019-03-22T17:47:46.084Z,6.70
2019-03-22T17:50:15.874Z,6.87
2019-03-22T17:52:44.283Z,9.17
2019-03-22T17:55:12.914Z,7.10
2019-03-22T17:57:41.623Z,6.87
2019-03-22T18:00:17.495Z,5.57
2019-03-22T18:02:45.897Z,8.00
2019-03-22T18:05:14.491Z,5.50
2019-03-22T18:07:43.340Z,5.10
2019-03-22T18:10:12.262Z,6.97
2019-03-22T18:12:42.109Z,6.20
2019-03-22T18:15:12.610Z,7.03
2019-03-22T18:17:41.290Z,5.10
2019-03-22T18:20:14.048Z,5.90
2019-03-22T18:22:42.961Z,6.13
2019-03-22T18:25:12.370Z,5.50
2019-03-22T18:27:40.986Z,5.63
2019-03-22T18:30:14.216Z,11.10
2019-03-22T18:32:42.900Z,15.67
2019-03-22T18:35:13.051Z,24.43
2019-03-22T18:37:41.493Z,29.37
2019-03-22T18:40:12.254Z,16.73
2019-03-22T18:42:40.984Z,13.90
2019-03-22T18:45:13.385Z,11.10
2019-03-22T18:47:42.268Z,7.07
2019-03-22T18:50:12.607Z,7.27
2019-03-22T18:52:41.353Z,6.90
2019-03-22T18:55:10.811Z,6.80
2019-03-22T18:57:40.118Z,7.00
2019-03-22T19:00:16.330Z,7.27
2019-03-22T19:02:44.775Z,7.20
2019-03-22T19:05:13.752Z,6.87
2019-03-22T19:07:42.506Z,7.20
2019-03-22T19:10:13.050Z,6.17
2019-03-22T19:12:42.433Z,7.53
2019-03-22T19:15:12.825Z,7.50
2019-03-22T19:17:41.278Z,6.83
2019-03-22T19:20:11.860Z,8.57
2019-03-22T19:22:40.272Z,8.00
2019-03-22T19:25:09.530Z,8.33
2019-03-22T19:27:38.117Z,8.20
2019-03-22T19:30:09.427Z,9.20
2019-03-22T19:32:38.869Z,9.17
2019-03-22T19:35:08.693Z,8.77
2019-03-22T19:37:37.386Z,7.53
2019-03-22T19:40:11.899Z,8.20
2019-03-22T19:42:40.455Z,7.87
2019-03-22T19:45:11.079Z,9.70
2019-03-22T19:47:39.850Z,9.43
2019-03-22T19:50:11.361Z,9.70
2019-03-22T19:52:40.169Z,9.80
2019-03-22T19:55:09.583Z,9.23
2019-03-22T19:57:38.453Z,7.97
2019-03-22T20:00:09.603Z,7.70
2019-03-22T20:02:38.976Z,6.80
2019-03-22T20:05:08.477Z,8.00
2019-03-22T20:07:37.651Z,8.33
2019-03-22T20:10:11.260Z,17.47
2019-03-22T20:12:39.764Z,13.13
2019-03-22T20:15:10.717Z,12.03
2019-03-22T20:17:39.891Z,10.10
2019-03-22T20:20:09.312Z,9.00
2019-03-22T20:22:39.436Z,7.87
2019-03-22T20:25:09.319Z,8.40
2019-03-22T20:27:38.180Z,7.63
2019-03-22T20:30:08.401Z,7.70
2019-03-22T20:32:36.898Z,7.57
2019-03-22T20:35:15.711Z,8.77
2019-03-22T20:37:38.099Z,7.90
2019-03-22T20:40:11.737Z,8.30
2019-03-22T20:42:40.151Z,7.47
2019-03-22T20:45:08.823Z,8.30
2019-03-22T20:47:38.245Z,8.13
2019-03-22T20:50:08.073Z,7.60
2019-03-22T20:52:36.570Z,7.97
2019-03-22T20:55:08.209Z,7.57
2019-03-22T20:57:37.070Z,7.83
2019-03-22T21:00:13.419Z,8.87
2019-03-22T21:02:42.211Z,8.20
2019-03-22T21:05:10.867Z,8.53
2019-03-22T21:07:39.698Z,10.10
2019-03-22T21:10:09.179Z,9.43
2019-03-22T21:12:37.905Z,9.60
2019-03-22T21:15:09.130Z,7.53
2019-03-22T21:17:37.813Z,8.67
2019-03-22T21:20:10.305Z,8.67
2019-03-22T21:22:38.768Z,9.20
2019-03-22T21:25:08.678Z,8.90
2019-03-22T21:27:37.117Z,8.47
2019-03-22T21:30:13.388Z,8.60
2019-03-22T21:32:45.547Z,8.37
2019-03-22T21:35:22.023Z,8.67
2019-03-22T21:37:43.556Z,8.30
2019-03-22T21:40:12.239Z,8.70
2019-03-22T21:42:40.651Z,7.90
2019-03-22T21:45:10.034Z,8.20
2019-03-22T21:47:38.456Z,8.10
2019-03-22T21:50:08.761Z,7.70
2019-03-22T21:52:37.465Z,7.53
2019-03-22T21:55:07.990Z,7.37
2019-03-22T21:57:36.671Z,7.23
2019-03-22T22:00:10.358Z,7.10
2019-03-22T22:02:38.783Z,7.50
2019-03-22T22:05:08.051Z,6.37
2019-03-22T22:07:36.525Z,7.30
2019-03-22T22:10:10.193Z,7.57
2019-03-22T22:12:38.796Z,7.40
2019-03-22T22:15:11.959Z,6.63
2019-03-22T22:17:41.244Z,6.47
2019-03-22T22:20:10.032Z,6.73
2019-03-22T22:22:39.422Z,6.80
2019-03-22T22:25:09.674Z,6.40
2019-03-22T22:27:38.282Z,6.90
2019-03-22T22:30:08.667Z,6.43
2019-03-22T22:32:37.084Z,6.60
2019-03-22T22:35:07.542Z,7.77
2019-03-22T22:37:37.313Z,7.23
2019-03-22T22:40:12.773Z,7.33
2019-03-22T22:42:41.187Z,7.20
2019-03-22T22:45:13.005Z,6.70
2019-03-22T22:47:41.490Z,6.20
2019-03-22T22:50:11.498Z,6.30
2019-03-22T22:52:40.028Z,7.07
2019-03-22T22:55:09.526Z,7.83
2019-03-22T22:57:37.928Z,8.00
2019-03-22T23:00:09.493Z,7.70
2019-03-22T23:02:38.137Z,7.40
2019-03-22T23:05:06.991Z,8.13
2019-03-22T23:07:35.786Z,7.47
2019-03-22T23:10:05.637Z,8.60
2019-03-22T23:12:34.133Z,8.40
2019-03-22T23:15:02.715Z,8.33
2019-03-22T23:17:31.183Z,8.50
2019-03-22T23:19:59.638Z,8.13
2019-03-22T23:22:28.101Z,8.73
2019-03-22T23:24:56.724Z,8.00
2019-03-22T23:27:25.379Z,7.90
2019-03-22T23:29:53.840Z,8.37
2019-03-22T23:32:22.242Z,8.53
2019-03-22T23:34:58.721Z,8.90
2019-03-22T23:37:21.346Z,7.97
2019-03-22T23:39:49.748Z,8.67
2019-03-22T23:42:18.410Z,8.47
2019-03-22T23:44:46.853Z,8.27
2019-03-22T23:47:15.526Z,8.90
2019-03-22T23:49:44.204Z,8.60
2019-03-22T23:52:12.666Z,7.80
2019-03-22T23:54:41.050Z,8.33
2019-03-22T23:57:09.477Z,7.90
2019-03-22T23:59:38.247Z,7.53
